createdAt,value
2023-03-06T00:02:00.405Z,8.68
2023-03-06T00:04:27.363Z,8.90
2023-03-06T00:06:54.329Z,8.63
2023-03-06T00:09:21.336Z,9.13
2023-03-06T00:11:48.280Z,8.55
2023-03-06T00:14:16.062Z,8.68
2023-03-06T00:16:43.047Z,8.93
2023-03-06T00:19:10.009Z,8.50
2023-03-06T00:21:36.977Z,9.00
2023-03-06T00:24:04.188Z,8.95
2023-03-06T00:26:31.156Z,8.95
2023-03-06T00:28:58.182Z,8.93
2023-03-06T00:31:25.355Z,9.23
2023-03-06T00:33:52.520Z,8.57
2023-03-06T00:36:19.503Z,8.57
2023-03-06T00:38:46.582Z,9.10
2023-03-06T00:41:13.754Z,9.07
2023-03-06T00:43:40.799Z,8.93
2023-03-06T00:46:08.317Z,9.30
2023-03-06T00:48:35.474Z,9.65
2023-03-06T00:51:02.531Z,9.35
2023-03-06T00:53:29.540Z,9.10
2023-03-06T00:55:56.581Z,9.48
2023-03-06T00:58:23.574Z,9.48
2023-03-06T01:00:50.582Z,9.30
2023-03-06T01:03:17.609Z,9.68
2023-03-06T01:05:44.587Z,10.23
2023-03-06T01:08:11.573Z,9.63
2023-03-06T01:10:39.601Z,9.40
2023-03-06T01:13:06.757Z,9.60
2023-03-06T01:15:33.898Z,9.95
2023-03-06T01:18:00.911Z,10.00
2023-03-06T01:20:28.393Z,9.98
2023-03-06T01:22:56.649Z,9.60
2023-03-06T01:25:24.844Z,10.35
2023-03-06T01:27:52.073Z,10.27
2023-03-06T01:30:19.831Z,9.32
2023-03-06T01:32:46.883Z,9.65
2023-03-06T01:35:14.459Z,9.07
2023-03-06T01:37:41.484Z,10.50
2023-03-06T01:40:09.961Z,12.05
2023-03-06T01:42:37.186Z,11.50
2023-03-06T01:45:11.644Z,11.52
2023-03-06T01:47:38.721Z,11.57
2023-03-06T01:50:07.136Z,10.70
2023-03-06T01:52:40.304Z,10.77
2023-03-06T01:55:16.215Z,10.10
2023-03-06T01:57:44.946Z,10.65
2023-03-06T02:00:17.115Z,10.57
2023-03-06T02:03:05.828Z,11.38
2023-03-06T02:05:33.365Z,10.75
2023-03-06T02:08:00.335Z,10.60
2023-03-06T02:10:27.350Z,10.48
2023-03-06T02:12:54.437Z,10.80
2023-03-06T02:15:24.527Z,11.43
2023-03-06T02:20:39.758Z,10.45
2023-03-06T02:23:28.646Z,10.02
2023-03-06T02:25:55.780Z,10.38
2023-03-06T02:28:23.102Z,11.50
2023-03-06T02:30:51.492Z,11.80
2023-03-06T02:33:20.570Z,11.23
2023-03-06T02:35:50.580Z,11.35
2023-03-06T02:38:18.719Z,11.50
2023-03-06T02:40:48.426Z,11.73
2023-03-06T02:43:16.554Z,11.70
2023-03-06T02:45:45.782Z,11.45
2023-03-06T02:48:13.317Z,11.40
2023-03-06T02:50:41.044Z,12.02
2023-03-06T02:53:08.814Z,11.93
2023-03-06T02:55:35.874Z,10.88
2023-03-06T02:58:02.966Z,11.48
2023-03-06T03:00:30.491Z,11.63
2023-03-06T03:02:57.524Z,12.18
2023-03-06T03:05:26.315Z,11.65
2023-03-06T03:07:59.615Z,11.25
2023-03-06T03:10:27.876Z,11.23
2023-03-06T03:12:54.956Z,12.90
2023-03-06T03:15:23.918Z,11.93
2023-03-06T03:17:50.982Z,11.65
2023-03-06T03:20:19.654Z,11.68
2023-03-06T03:22:54.179Z,12.77
2023-03-06T03:25:21.738Z,12.00
2023-03-06T03:27:48.742Z,12.10
2023-03-06T03:30:16.039Z,11.90
2023-03-06T03:32:43.314Z,10.82
2023-03-06T03:35:10.484Z,11.18
2023-03-06T03:37:37.796Z,11.50
2023-03-06T03:40:07.202Z,11.27
2023-03-06T03:42:34.557Z,11.32
2023-03-06T03:45:01.558Z,11.07
2023-03-06T03:47:28.706Z,11.30
2023-03-06T03:49:55.617Z,11.85
2023-03-06T03:52:23.348Z,11.85
2023-03-06T03:54:50.436Z,12.18
2023-03-06T03:57:17.572Z,11.73
2023-03-06T04:02:25.542Z,11.13
2023-03-06T04:05:14.896Z,11.27
2023-03-06T04:07:42.894Z,12.30
2023-03-06T04:10:11.025Z,11.55
2023-03-06T04:12:38.467Z,11.20
2023-03-06T04:15:06.973Z,11.98
2023-03-06T04:17:35.641Z,11.18
2023-03-06T04:20:05.960Z,11.02
2023-03-06T04:22:33.742Z,11.38
2023-03-06T04:25:00.989Z,11.57
2023-03-06T04:27:27.997Z,12.23
2023-03-06T04:29:58.264Z,12.93
2023-03-06T04:32:25.377Z,11.82
2023-03-06T04:34:52.345Z,11.77
2023-03-06T04:37:21.184Z,11.18
2023-03-06T04:39:48.414Z,11.13
2023-03-06T04:42:15.527Z,11.95
2023-03-06T04:44:42.424Z,11.88
2023-03-06T04:47:09.407Z,11.52
2023-03-06T04:49:36.557Z,12.18
2023-03-06T04:52:03.730Z,11.35
2023-03-06T04:54:30.645Z,11.30
2023-03-06T04:56:57.604Z,11.93
2023-03-06T04:59:24.740Z,11.20
2023-03-06T05:01:51.771Z,11.35
2023-03-06T05:04:18.736Z,11.75
2023-03-06T05:06:45.882Z,12.07
2023-03-06T05:09:12.869Z,12.45
2023-03-06T05:11:39.934Z,12.25
2023-03-06T05:14:06.840Z,11.35
2023-03-06T05:16:33.828Z,11.73
2023-03-06T05:19:00.799Z,11.55
2023-03-06T05:21:27.917Z,11.95
2023-03-06T05:23:54.936Z,11.15
2023-03-06T05:26:21.876Z,11.02
2023-03-06T05:28:50.340Z,11.85
2023-03-06T05:31:17.327Z,10.73
2023-03-06T05:33:45.048Z,11.18
2023-03-06T05:36:12.313Z,11.52
2023-03-06T05:38:39.621Z,11.75
2023-03-06T05:41:06.869Z,12.05
2023-03-06T05:43:33.793Z,11.25
2023-03-06T05:46:03.207Z,11.75
2023-03-06T05:48:30.310Z,11.85
2023-03-06T05:50:58.578Z,12.43
2023-03-06T05:53:26.766Z,11.75
2023-03-06T05:56:01.427Z,11.25
2023-03-06T05:58:28.569Z,11.52
2023-03-06T06:00:55.556Z,11.18
2023-03-06T06:03:22.655Z,12.10
2023-03-06T06:05:49.928Z,11.10
2023-03-06T06:08:16.937Z,10.73
2023-03-06T06:10:43.950Z,12.30
2023-03-06T06:13:10.982Z,11.73
2023-03-06T06:15:38.653Z,11.45
2023-03-06T06:18:05.694Z,11.02
2023-03-06T06:20:32.840Z,11.20
2023-03-06T06:22:59.718Z,11.07
2023-03-06T06:25:26.628Z,10.75
2023-03-06T06:27:56.039Z,11.70
2023-03-06T06:30:23.078Z,11.48
2023-03-06T06:32:50.166Z,11.48
2023-03-06T06:35:17.232Z,11.80
2023-03-06T06:37:44.158Z,11.10
2023-03-06T06:40:11.723Z,11.38
2023-03-06T06:42:40.298Z,11.00
2023-03-06T06:45:10.071Z,11.00
2023-03-06T06:47:41.227Z,10.93
2023-03-06T06:50:11.602Z,10.77
2023-03-06T06:52:38.752Z,10.70
2023-03-06T06:55:06.090Z,10.73
2023-03-06T06:57:33.370Z,11.48
2023-03-06T07:00:00.339Z,10.93
2023-03-06T07:02:27.247Z,10.90
2023-03-06T07:05:03.472Z,10.48
2023-03-06T07:07:33.669Z,10.30
2023-03-06T07:10:00.744Z,9.57
2023-03-06T07:12:27.710Z,10.35
2023-03-06T07:14:54.663Z,9.85
2023-03-06T07:17:21.572Z,9.68
2023-03-06T07:19:48.701Z,8.95
2023-03-06T07:22:15.820Z,9.45
2023-03-06T07:24:42.874Z,9.40
2023-03-06T07:27:09.817Z,9.32
2023-03-06T07:29:36.847Z,9.48
2023-03-06T07:32:03.852Z,9.13
2023-03-06T07:34:30.814Z,9.10
2023-03-06T07:36:57.910Z,9.63
2023-03-06T07:39:24.845Z,9.15
2023-03-06T07:41:52.420Z,9.70
2023-03-06T07:44:19.400Z,9.07
2023-03-06T07:46:46.471Z,9.50
2023-03-06T07:49:13.536Z,9.98
2023-03-06T07:51:40.627Z,9.57
2023-03-06T07:54:07.671Z,9.18
2023-03-06T07:56:35.209Z,9.13
2023-03-06T07:59:02.207Z,9.30
2023-03-06T08:01:29.230Z,9.07
2023-03-06T08:03:56.280Z,9.00
2023-03-06T08:06:24.890Z,9.23
2023-03-06T08:08:52.892Z,8.30
2023-03-06T08:11:21.183Z,9.15
2023-03-06T08:13:49.039Z,9.02
2023-03-06T08:16:17.550Z,8.70
2023-03-06T08:18:46.370Z,8.23
2023-03-06T08:21:15.498Z,8.10
2023-03-06T08:23:42.748Z,8.13
2023-03-06T08:26:17.779Z,8.68
2023-03-06T08:28:44.827Z,8.50
2023-03-06T08:31:31.558Z,8.65
2023-03-06T08:34:00.147Z,8.98
2023-03-06T08:36:27.106Z,8.27
2023-03-06T08:38:54.561Z,7.57
2023-03-06T08:41:22.350Z,7.88
2023-03-06T08:43:49.642Z,8.95
2023-03-06T08:46:18.870Z,8.13
2023-03-06T08:48:47.880Z,7.90
2023-03-06T08:51:15.085Z,7.47
2023-03-06T08:53:44.155Z,7.40
2023-03-06T08:56:19.030Z,7.55
2023-03-06T08:58:46.377Z,8.35
2023-03-06T09:01:17.834Z,8.02
2023-03-06T09:03:44.962Z,7.95
2023-03-06T09:06:12.017Z,7.25
2023-03-06T09:08:43.178Z,7.65
2023-03-06T09:11:14.542Z,7.40
2023-03-06T09:13:42.277Z,7.32
2023-03-06T09:16:09.980Z,7.57
2023-03-06T09:18:37.277Z,7.15
2023-03-06T09:21:04.972Z,7.55
2023-03-06T09:23:32.011Z,7.57
2023-03-06T09:25:59.664Z,7.40
2023-03-06T09:28:26.714Z,7.68
2023-03-06T09:30:54.103Z,7.60
2023-03-06T09:33:21.321Z,7.75
2023-03-06T09:35:55.939Z,8.07
2023-03-06T09:38:24.965Z,7.80
2023-03-06T09:40:57.777Z,7.28
2023-03-06T09:43:44.437Z,7.80
2023-03-06T09:46:46.095Z,7.50
2023-03-06T09:49:34.352Z,7.88
2023-03-06T09:52:23.626Z,7.70
2023-03-06T09:55:18.214Z,7.20
2023-03-06T09:58:21.406Z,7.28
2023-03-06T10:01:07.252Z,7.18
2023-03-06T10:03:45.027Z,6.78
2023-03-06T10:06:18.544Z,7.60
2023-03-06T10:08:51.796Z,7.63
2023-03-06T10:11:41.566Z,7.07
2023-03-06T10:14:20.040Z,6.93
2023-03-06T10:16:47.132Z,7.30
2023-03-06T10:19:18.736Z,7.20
2023-03-06T10:22:11.726Z,6.97
2023-03-06T10:24:43.608Z,7.00
2023-03-06T10:30:12.971Z,7.30
2023-03-06T10:32:48.306Z,7.75
2023-03-06T10:35:21.968Z,7.65
2023-03-06T10:37:49.659Z,7.20
2023-03-06T10:40:21.839Z,6.72
2023-03-06T10:42:52.081Z,7.22
2023-03-06T10:45:23.247Z,7.80
2023-03-06T10:47:50.218Z,7.63
2023-03-06T10:50:24.969Z,7.72
2023-03-06T10:53:04.525Z,7.47
2023-03-06T10:55:32.693Z,7.35
2023-03-06T10:58:17.124Z,8.02
2023-03-06T11:00:44.151Z,8.48
2023-03-06T11:03:20.042Z,7.40
2023-03-06T11:06:03.083Z,6.90
2023-03-06T11:08:30.597Z,7.40
2023-03-06T11:10:59.930Z,6.80
2023-03-06T11:13:28.785Z,6.72
2023-03-06T11:16:04.174Z,6.95
2023-03-06T11:18:41.545Z,6.53
2023-03-06T11:21:32.748Z,6.20
2023-03-06T11:24:07.052Z,6.20
2023-03-06T11:26:51.279Z,5.70
2023-03-06T11:29:42.554Z,5.47
2023-03-06T11:32:14.400Z,5.55
2023-03-06T11:34:54.969Z,5.15
2023-03-06T11:37:40.919Z,6.68
2023-03-06T11:40:11.587Z,6.88
2023-03-06T11:42:47.642Z,5.70
2023-03-06T11:45:35.181Z,5.82
2023-03-06T11:48:08.559Z,5.65
2023-03-06T11:50:37.281Z,5.78
2023-03-06T11:53:05.704Z,5.47
2023-03-06T11:55:44.749Z,5.90
2023-03-06T11:58:27.791Z,5.60
2023-03-06T12:01:28.449Z,5.32
2023-03-06T12:04:04.521Z,5.93
2023-03-06T12:06:58.662Z,5.30
2023-03-06T12:09:40.528Z,5.20
2023-03-06T12:15:00.873Z,5.53
2023-03-06T12:17:37.348Z,5.38
2023-03-06T12:20:20.377Z,4.63
2023-03-06T12:22:58.156Z,4.30
2023-03-06T12:25:49.344Z,5.32
2023-03-06T12:28:41.186Z,5.32
2023-03-06T12:31:14.266Z,4.82
2023-03-06T12:33:54.109Z,5.70
2023-03-06T12:36:37.469Z,5.20
2023-03-06T12:39:09.044Z,4.88
2023-03-06T12:41:44.158Z,4.90
2023-03-06T12:44:23.181Z,4.43
2023-03-06T12:46:54.431Z,4.72
2023-03-06T12:49:32.864Z,4.63
2023-03-06T12:52:01.308Z,4.53
2023-03-06T12:54:30.005Z,4.32
2023-03-06T12:56:57.481Z,4.80
2023-03-06T12:59:44.671Z,4.32
2023-03-06T13:02:36.553Z,4.20
2023-03-06T13:05:12.963Z,4.38
2023-03-06T13:08:07.785Z,4.38
2023-03-06T13:10:35.936Z,4.30
2023-03-06T13:13:21.850Z,4.15
2023-03-06T13:16:04.274Z,4.32
2023-03-06T13:18:34.273Z,4.35
2023-03-06T13:21:01.618Z,4.63
2023-03-06T13:23:38.723Z,4.00
2023-03-06T13:26:10.511Z,4.47
2023-03-06T13:28:45.222Z,5.05
2023-03-06T13:31:33.389Z,4.82
2023-03-06T13:34:02.464Z,5.00
2023-03-06T13:36:31.326Z,4.30
2023-03-06T13:39:11.646Z,4.75
2023-03-06T13:41:42.633Z,4.70
2023-03-06T13:44:25.244Z,4.50
2023-03-06T13:47:01.871Z,4.72
2023-03-06T13:49:28.855Z,5.00
2023-03-06T13:52:01.924Z,4.82
2023-03-06T13:54:59.976Z,4.72
2023-03-06T13:57:40.249Z,5.28
2023-03-06T14:00:45.311Z,4.45
2023-03-06T14:04:00.911Z,4.53
2023-03-06T14:06:42.177Z,4.40
2023-03-06T14:09:29.403Z,4.47
2023-03-06T14:12:08.558Z,4.28
2023-03-06T14:14:43.240Z,4.60
2023-03-06T14:17:25.223Z,3.92
2023-03-06T14:22:22.501Z,4.25
2023-03-06T14:25:04.996Z,3.47
2023-03-06T14:27:39.824Z,3.90
2023-03-06T14:30:16.347Z,4.13
2023-03-06T14:32:43.841Z,3.70
2023-03-06T14:35:40.548Z,3.92
2023-03-06T14:38:08.271Z,3.60
2023-03-06T14:40:36.906Z,4.10
2023-03-06T14:43:23.736Z,3.92
2023-03-06T14:45:58.009Z,3.95
2023-03-06T14:48:41.960Z,3.50
2023-03-06T14:51:23.306Z,3.60
2023-03-06T14:53:50.854Z,3.78
2023-03-06T14:56:22.364Z,3.90
2023-03-06T14:59:00.399Z,4.20
2023-03-06T15:01:35.341Z,3.95
2023-03-06T15:04:02.596Z,4.50
2023-03-06T15:06:34.112Z,4.40
2023-03-06T15:09:07.846Z,4.32
2023-03-06T15:12:01.861Z,4.15
2023-03-06T15:14:32.135Z,4.50
2023-03-06T15:17:17.797Z,4.47
2023-03-06T15:19:46.234Z,4.38
2023-03-06T15:22:34.869Z,4.30
2023-03-06T15:25:30.473Z,4.47
2023-03-06T15:27:58.581Z,4.80
2023-03-06T15:30:27.111Z,4.40
2023-03-06T15:33:18.193Z,4.63
2023-03-06T15:35:57.094Z,5.22
2023-03-06T15:38:40.461Z,5.40
2023-03-06T15:41:07.853Z,5.50
2023-03-06T15:43:38.251Z,5.07
2023-03-06T15:46:06.281Z,5.00
2023-03-06T15:48:35.856Z,5.20
2023-03-06T15:51:03.315Z,5.47
2023-03-06T15:53:30.558Z,4.85
2023-03-06T15:55:57.711Z,4.60
2023-03-06T15:58:26.867Z,4.00
2023-03-06T16:00:54.053Z,3.63
2023-03-06T16:03:21.232Z,3.38
2023-03-06T16:05:48.361Z,3.22
2023-03-06T16:08:16.223Z,3.33
2023-03-06T16:10:43.845Z,3.00
2023-03-06T16:13:21.086Z,3.20
2023-03-06T16:15:49.626Z,3.80
2023-03-06T16:18:16.743Z,3.40
2023-03-06T16:20:43.802Z,3.35
2023-03-06T16:23:10.933Z,3.05
2023-03-06T16:25:42.584Z,3.10
2023-03-06T16:28:14.465Z,3.40
2023-03-06T16:33:12.615Z,3.00
2023-03-06T16:35:39.961Z,2.90
2023-03-06T16:38:07.195Z,2.70
2023-03-06T16:40:38.049Z,2.60
2023-03-06T16:43:05.489Z,3.00
2023-03-06T16:45:35.073Z,2.67
2023-03-06T16:48:02.111Z,2.65
2023-03-06T16:50:31.145Z,2.60
2023-03-06T16:52:58.423Z,2.58
2023-03-06T16:55:26.255Z,2.88
2023-03-06T16:57:53.961Z,2.50
2023-03-06T17:00:21.460Z,2.63
2023-03-06T17:02:49.031Z,2.97
2023-03-06T17:05:16.643Z,3.00
2023-03-06T17:07:43.716Z,3.20
2023-03-06T17:10:13.993Z,3.40
2023-03-06T17:12:41.924Z,3.50
2023-03-06T17:15:09.818Z,2.92
2023-03-06T17:17:36.830Z,3.33
2023-03-06T17:20:04.797Z,3.55
2023-03-06T17:22:35.841Z,3.30
2023-03-06T17:25:04.875Z,3.40
2023-03-06T17:27:31.889Z,3.30
2023-03-06T17:29:59.370Z,3.08
2023-03-06T17:32:26.843Z,3.17
2023-03-06T17:34:54.268Z,3.13
2023-03-06T17:37:21.424Z,3.30
2023-03-06T17:39:48.485Z,3.00
2023-03-06T17:42:15.712Z,3.20
2023-03-06T17:44:42.693Z,3.25
2023-03-06T17:47:09.762Z,3.33
2023-03-06T17:49:37.093Z,3.35
2023-03-06T17:52:05.821Z,3.17
2023-03-06T17:54:33.439Z,3.20
2023-03-06T17:57:02.939Z,2.92
2023-03-06T17:59:31.171Z,3.17
2023-03-06T18:01:59.291Z,3.28
2023-03-06T18:04:26.973Z,2.92
2023-03-06T18:06:54.053Z,3.33
2023-03-06T18:09:21.102Z,3.78
2023-03-06T18:11:48.079Z,3.40
2023-03-06T18:14:15.026Z,3.33
2023-03-06T18:16:41.985Z,3.53
2023-03-06T18:19:10.967Z,3.65
2023-03-06T18:21:39.228Z,3.78
2023-03-06T18:24:06.598Z,3.22
2023-03-06T18:26:33.508Z,3.38
2023-03-06T18:29:01.937Z,3.40
2023-03-06T18:31:34.087Z,3.38
2023-03-06T18:34:03.512Z,3.70
2023-03-06T18:36:31.562Z,3.58
2023-03-06T18:38:58.729Z,3.55
2023-03-06T18:41:25.940Z,3.85
2023-03-06T18:43:53.811Z,3.53
2023-03-06T18:46:21.104Z,4.25
2023-03-06T18:48:48.245Z,4.20
2023-03-06T18:51:15.264Z,3.85
2023-03-06T18:53:42.507Z,3.63
2023-03-06T18:56:10.761Z,3.92
2023-03-06T18:58:37.702Z,3.90
2023-03-06T19:01:07.952Z,4.05
2023-03-06T19:03:34.992Z,3.75
2023-03-06T19:06:12.751Z,4.07
2023-03-06T19:08:40.667Z,3.75
2023-03-06T19:11:09.791Z,3.60
2023-03-06T19:13:37.127Z,3.63
2023-03-06T19:16:04.550Z,3.55
2023-03-06T19:18:31.660Z,3.22
2023-03-06T19:21:12.482Z,3.28
2023-03-06T19:23:39.616Z,3.35
2023-03-06T19:26:07.574Z,3.15
2023-03-06T19:28:35.316Z,3.45
2023-03-06T19:31:11.869Z,3.05
2023-03-06T19:33:39.232Z,3.35
2023-03-06T19:36:07.216Z,3.22
2023-03-06T19:38:34.243Z,2.92
2023-03-06T19:41:01.204Z,3.67
2023-03-06T19:43:28.855Z,2.58
2023-03-06T19:45:56.421Z,2.13
2023-03-06T19:48:23.551Z,2.25
2023-03-06T19:50:50.548Z,2.30
2023-03-06T19:53:17.519Z,2.35
2023-03-06T19:55:44.737Z,2.40
2023-03-06T19:58:11.666Z,2.20
2023-03-06T20:00:38.735Z,2.50
2023-03-06T20:03:05.864Z,2.45
2023-03-06T20:05:32.993Z,2.53
2023-03-06T20:07:59.972Z,2.80
2023-03-06T20:10:27.086Z,2.95
2023-03-06T20:12:54.242Z,3.92
2023-03-06T20:15:22.300Z,4.43
2023-03-06T20:17:49.547Z,4.85
2023-03-06T20:20:16.928Z,5.57
2023-03-06T20:22:44.074Z,5.40
2023-03-06T20:25:11.099Z,5.10
2023-03-06T20:27:38.322Z,5.32
2023-03-06T20:30:07.895Z,4.85
2023-03-06T20:32:35.210Z,5.30
2023-03-06T20:35:02.581Z,5.22
2023-03-06T20:37:29.547Z,5.28
2023-03-06T20:39:56.577Z,5.63
2023-03-06T20:42:23.610Z,5.60
2023-03-06T20:44:50.616Z,5.28
2023-03-06T20:47:17.749Z,5.18
2023-03-06T20:49:44.780Z,5.10
2023-03-06T20:52:11.729Z,4.90
2023-03-06T20:54:38.696Z,4.60
2023-03-06T20:57:05.689Z,4.55
2023-03-06T20:59:32.736Z,4.10
2023-03-06T21:01:59.718Z,4.18
2023-03-06T21:04:26.909Z,4.00
2023-03-06T21:06:54.027Z,4.20
2023-03-06T21:09:21.083Z,4.40
2023-03-06T21:11:48.126Z,4.57
2023-03-06T21:14:15.560Z,5.90
2023-03-06T21:16:42.888Z,5.60
2023-03-06T21:19:10.123Z,4.93
2023-03-06T21:21:37.372Z,4.90
2023-03-06T21:24:04.618Z,4.40
2023-03-06T21:26:33.782Z,3.90
2023-03-06T21:29:01.213Z,4.18
2023-03-06T21:31:28.531Z,4.05
2023-03-06T21:33:55.789Z,3.85
2023-03-06T21:36:22.981Z,3.85
2023-03-06T21:38:50.731Z,4.15
2023-03-06T21:41:24.828Z,3.95
2023-03-06T21:43:56.626Z,4.20
2023-03-06T21:46:24.100Z,3.72
2023-03-06T21:48:51.139Z,3.80
2023-03-06T21:51:19.377Z,4.10
2023-03-06T21:53:47.385Z,4.07
2023-03-06T21:56:15.093Z,4.30
2023-03-06T21:58:42.364Z,4.00
2023-03-06T22:01:14.442Z,4.20
2023-03-06T22:06:12.864Z,3.70
2023-03-06T22:08:40.438Z,3.38
2023-03-06T22:11:12.136Z,3.90
2023-03-06T22:13:39.244Z,3.78
2023-03-06T22:16:06.760Z,3.60
2023-03-06T22:18:34.119Z,3.75
2023-03-06T22:21:05.791Z,3.70
2023-03-06T22:23:32.833Z,3.80
2023-03-06T22:26:06.819Z,4.00
2023-03-06T22:28:34.218Z,3.90
2023-03-06T22:31:11.932Z,4.22
2023-03-06T22:33:38.970Z,3.75
2023-03-06T22:36:08.148Z,3.88
2023-03-06T22:38:36.092Z,4.35
2023-03-06T22:41:03.159Z,4.60
2023-03-06T22:43:30.094Z,4.35
2023-03-06T22:46:08.332Z,4.63
2023-03-06T22:48:35.582Z,4.13
2023-03-06T22:51:06.687Z,4.03
2023-03-06T22:53:33.934Z,3.93
2023-03-06T22:56:01.621Z,3.63
2023-03-06T22:58:34.326Z,3.85
2023-03-06T23:01:18.798Z,3.85
2023-03-06T23:03:47.517Z,3.67
2023-03-06T23:06:19.483Z,3.78
2023-03-06T23:11:18.305Z,3.53
2023-03-06T23:14:05.728Z,4.25
2023-03-06T23:16:51.272Z,3.33
2023-03-06T23:19:36.991Z,3.65
2023-03-06T23:22:22.897Z,3.70
2023-03-06T23:25:09.219Z,3.22
2023-03-06T23:27:36.450Z,3.78
2023-03-06T23:30:05.068Z,3.63
2023-03-06T23:32:34.939Z,3.50
2023-03-06T23:35:02.136Z,3.70
2023-03-06T23:37:29.261Z,3.33
2023-03-06T23:39:56.317Z,3.40
2023-03-06T23:42:23.527Z,3.20
2023-03-06T23:44:50.522Z,3.50
2023-03-06T23:47:18.379Z,3.53
2023-03-06T23:49:45.396Z,3.30
2023-03-06T23:52:12.689Z,3.25
2023-03-06T23:54:39.720Z,3.30
2023-03-06T23:57:07.013Z,3.13
2023-03-06T23:59:34.059Z,3.30
